Time;durP1;ratioP1;P1;durP2;ratioP2;P2;SDS_P1;SDS_P2;PMS_P1;PMS_P2;Temp;Humidity;BMP_temperature;BMP_pressure;BME280_temperature;BME280_humidity;BME280_pressure;Samples;Min_cycle;Max_cycle;Signal;HPM_P1;HPM_P2
2022/08/25 00:01:07;;;;;;;3.47;2.22;;;23.20;86.00;;;;;;5075579;28;20036;-81
2022/08/25 00:03:32;;;;;;;;;;;23.20;86.10;;;;;;5074913;28;20027;-81
2022/08/25 00:05:58;;;;;;;3.45;2.10;;;23.20;86.10;;;;;;5074446;28;20357;-80
2022/08/25 00:08:24;;;;;;;3.85;2.40;;;23.20;86.20;;;;;;5075596;28;20021;-81
2022/08/25 00:10:49;;;;;;;4.07;2.40;;;23.10;86.10;;;;;;5074738;28;20101;-80
2022/08/25 00:13:15;;;;;;;4.35;2.58;;;23.20;86.10;;;;;;5075295;28;20067;-80
2022/08/25 00:15:40;;;;;;;4.97;2.40;;;23.20;86.10;;;;;;5075009;28;20051;-81
2022/08/25 00:18:06;;;;;;;4.10;2.47;;;23.20;86.00;;;;;;5073479;28;20025;-79
2022/08/25 00:20:32;;;;;;;3.95;2.40;;;23.20;86.00;;;;;;5072942;28;20028;-80
2022/08/25 00:22:57;;;;;;;4.55;2.30;;;23.20;85.90;;;;;;5072813;28;20401;-81
2022/08/25 00:25:23;;;;;;;3.90;2.20;;;23.20;85.80;;;;;;5072722;28;20401;-80
2022/08/25 00:27:51;;;;;;;3.00;2.10;;;23.20;85.80;;;;;;5074501;28;20177;-80
2022/08/25 00:30:17;;;;;;;3.53;2.10;;;23.20;85.80;;;;;;5072693;28;20028;-80
2022/08/25 00:32:45;;;;;;;4.32;2.38;;;23.20;85.90;;;;;;5074470;28;20393;-80
2022/08/25 00:35:10;;;;;;;3.75;2.38;;;23.20;86.00;;;;;;5073987;28;20043;-80
2022/08/25 00:37:37;;;;;;;3.70;2.20;;;23.20;86.10;;;;;;5072817;28;20492;-80
2022/08/25 00:40:04;;;;;;;3.92;2.22;;;23.20;86.60;;;;;;5072590;28;20029;-80
2022/08/25 00:42:30;;;;;;;4.03;2.30;;;23.20;86.20;;;;;;5072182;28;20028;-81
2022/08/25 00:44:57;;;;;;;3.42;2.08;;;23.20;86.20;;;;;;5073679;28;20511;-80
2022/08/25 00:47:23;;;;;;;3.92;2.20;;;23.10;86.20;;;;;;5073781;28;20027;-80
2022/08/25 00:49:53;;;;;;;3.60;2.30;;;23.10;86.30;;;;;;5073577;28;20029;-81
2022/08/25 00:52:30;;;;;;;3.55;2.28;;;23.10;86.30;;;;;;5074172;28;20029;-80
2022/08/25 00:55:06;;;;;;;3.95;2.55;;;23.10;86.30;;;;;;5072583;28;20111;-80
2022/08/25 00:57:35;;;;;;;3.65;2.20;;;23.10;86.30;;;;;;5075782;28;20392;-82
2022/08/25 01:00:05;;;;;;;3.88;2.22;;;23.10;86.20;;;;;;5076011;28;20032;-81
2022/08/25 01:02:31;;;;;;;3.95;2.33;;;23.10;86.20;;;;;;5076365;28;20036;-81
2022/08/25 01:04:57;;;;;;;3.78;2.50;;;23.20;86.30;;;;;;5075194;28;20029;-80
2022/08/25 01:07:22;;;;;;;4.32;2.40;;;23.20;86.20;;;;;;5074445;28;20374;-81
2022/08/25 01:09:50;;;;;;;2.80;2.10;;;23.20;86.10;;;;;;5073993;28;20408;-80
2022/08/25 01:12:16;;;;;;;3.15;2.28;;;23.20;86.00;;;;;;5075222;28;20078;-82
2022/08/25 01:14:44;;;;;;;3.72;2.22;;;23.20;85.90;;;;;;5076478;28;20020;-81
2022/08/25 01:17:10;;;;;;;3.78;2.50;;;23.20;85.90;;;;;;5075829;28;20031;-82
2022/08/25 01:19:36;;;;;;;2.97;2.22;;;23.20;86.00;;;;;;5074417;28;20506;-80
2022/08/25 01:22:01;;;;;;;4.13;2.78;;;23.20;86.10;;;;;;5074320;28;20047;-81
2022/08/25 01:24:41;;;;;;;3.97;2.28;;;23.10;86.20;;;;;;5074509;28;20029;-80
2022/08/25 01:27:07;;;;;;;3.45;2.25;;;23.20;86.30;;;;;;5074225;28;20021;-80
2022/08/25 01:29:34;;;;;;;3.90;2.35;;;23.20;86.30;;;;;;5073974;28;20068;-81
2022/08/25 01:32:04;;;;;;;3.53;2.28;;;23.10;86.30;;;;;;5074742;28;20016;-79
2022/08/25 01:34:33;;;;;;;3.15;2.08;;;23.10;86.30;;;;;;5075060;28;20058;-81
2022/08/25 01:36:59;;;;;;;4.45;2.22;;;23.10;86.40;;;;;;5075278;28;20027;-80
2022/08/25 01:39:27;;;;;;;3.55;2.10;;;23.10;86.40;;;;;;5076533;28;20021;-80
2022/08/25 01:42:07;;;;;;;3.17;2.20;;;23.10;86.40;;;;;;5074730;28;20020;-80
2022/08/25 01:44:36;;;;;;;2.83;2.03;;;23.10;86.40;;;;;;5076212;28;20043;-80
2022/08/25 01:47:03;;;;;;;2.75;1.98;;;23.10;86.40;;;;;;5076046;28;20040;-80
2022/08/25 01:49:28;;;;;;;4.00;2.20;;;23.10;86.40;;;;;;5075910;28;20461;-80
2022/08/25 01:52:11;;;;;;;3.17;2.40;;;23.20;86.40;;;;;;5075874;28;20052;-80
2022/08/25 01:54:37;;;;;;;3.38;2.13;;;23.20;86.30;;;;;;5074758;28;20017;-80
2022/08/25 01:57:03;;;;;;;3.58;2.30;;;23.20;86.20;;;;;;5075719;28;20013;-81
2022/08/25 01:59:29;;;;;;;3.08;2.20;;;23.20;86.20;;;;;;5074567;28;20029;-81
2022/08/25 02:01:54;;;;;;;3.60;2.40;;;23.20;86.10;;;;;;5075573;28;20016;-80
2022/08/25 02:04:20;;;;;;;4.05;2.33;;;23.20;86.20;;;;;;5074774;28;20380;-80
2022/08/25 02:06:46;;;;;;;3.45;2.40;;;23.20;86.30;;;;;;5074465;28;20021;-80
2022/08/25 02:09:15;;;;;;;3.70;2.30;;;23.10;86.20;;;;;;5074521;28;20419;-81
2022/08/25 02:11:43;;;;;;;3.72;2.38;;;23.10;86.30;;;;;;5074124;28;20062;-79
2022/08/25 02:14:10;;;;;;;4.32;2.30;;;23.10;86.40;;;;;;5075920;28;20021;-80
2022/08/25 02:16:38;;;;;;;2.83;2.05;;;23.10;86.40;;;;;;5074342;28;20020;-81
2022/08/25 02:19:08;;;;;;;3.63;2.03;;;23.10;86.40;;;;;;5074371;28;20023;-80
2022/08/25 02:21:34;;;;;;;3.58;2.50;;;23.10;86.50;;;;;;5073758;28;20017;-80
2022/08/25 02:24:01;;;;;;;2.72;1.92;;;23.10;86.50;;;;;;5073910;28;20107;-80
2022/08/25 02:26:26;;;;;;;4.10;2.28;;;23.10;86.50;;;;;;5074016;28;20043;-80
2022/08/25 02:28:53;;;;;;;3.08;2.15;;;23.10;86.60;;;;;;5073785;28;20016;-80
2022/08/25 02:31:21;;;;;;;2.90;2.20;;;23.10;86.50;;;;;;5073638;28;20050;-79
2022/08/25 02:33:47;;;;;;;3.35;2.17;;;23.10;86.50;;;;;;5073743;28;20021;-81
2022/08/25 02:36:13;;;;;;;3.38;1.88;;;23.10;86.80;;;;;;5068017;28;20024;-80
2022/08/25 02:38:40;;;;;;;3.03;2.00;;;23.10;86.40;;;;;;5068269;28;20468;-78
2022/08/25 02:41:15;;;;;;;4.18;2.33;;;23.20;86.40;;;;;;5074917;28;20021;-81
2022/08/25 02:43:42;;;;;;;3.92;2.30;;;23.10;86.30;;;;;;5075531;28;20025;-80
2022/08/25 02:46:09;;;;;;;3.70;2.15;;;23.10;86.20;;;;;;5074266;28;20067;-81
2022/08/25 02:48:34;;;;;;;3.33;2.13;;;23.20;86.30;;;;;;5070558;28;20070;-81
2022/08/25 02:51:00;;;;;;;3.95;2.10;;;23.20;86.40;;;;;;5058233;28;20021;-82
2022/08/25 02:53:27;;;;;;;3.85;2.38;;;23.10;86.40;;;;;;5057440;28;20473;-80
2022/08/25 02:55:53;;;;;;;3.38;2.25;;;23.10;86.40;;;;;;5056920;28;20032;-81
2022/08/25 02:58:19;;;;;;;4.05;2.25;;;23.10;86.40;;;;;;5073408;28;20024;-81
2022/08/25 03:00:46;;;;;;;3.50;2.35;;;23.10;86.50;;;;;;5075512;28;20032;-81
2022/08/25 03:03:11;;;;;;;3.55;2.13;;;23.10;86.60;;;;;;5063843;28;20028;-81
2022/08/25 03:05:37;;;;;;;3.72;2.20;;;23.10;86.60;;;;;;5072215;28;20054;-81
2022/08/25 03:08:04;;;;;;;4.28;2.28;;;23.10;86.60;;;;;;5074246;28;20020;-81
2022/08/25 03:10:29;;;;;;;5.15;2.40;;;23.10;86.20;;;;;;5063706;28;20055;-81
2022/08/25 03:12:55;;;;;;;6.95;2.80;;;23.10;86.30;;;;;;5058452;28;20473;-81
2022/08/25 03:15:21;;;;;;;6.10;2.60;;;23.10;86.50;;;;;;5063935;28;20024;-81
2022/08/25 03:17:49;;;;;;;6.20;2.13;;;23.10;86.30;;;;;;5054626;28;20071;-80
2022/08/25 03:20:15;;;;;;;6.13;2.38;;;23.10;86.20;;;;;;5055870;28;20028;-80
2022/08/25 03:22:41;;;;;;;5.70;2.30;;;23.10;86.10;;;;;;5057445;28;20029;-80
2022/08/25 03:27:52;;;;;;;5.43;2.33;;;23.20;86.00;;;;;;5069623;28;20028;-79
2022/08/25 03:30:18;;;;;;;4.63;2.22;;;23.20;86.30;;;;;;5078413;28;20525;-82
2022/08/25 03:32:44;;;;;;;6.85;2.67;;;23.30;86.10;;;;;;5077357;28;20052;-81
2022/08/25 03:35:10;;;;;;;5.75;2.25;;;23.30;87.20;;;;;;5076407;28;20017;-82
2022/08/25 03:37:36;;;;;;;7.55;2.40;;;23.40;87.90;;;;;;5077047;28;20025;-81
2022/08/25 03:40:04;;;;;;;6.63;2.40;;;23.60;87.90;;;;;;5075113;28;20408;-81
2022/08/25 03:42:29;;;;;;;9.55;2.38;;;23.70;88.30;;;;;;5075000;28;20450;-82
2022/08/25 03:44:55;;;;;;;5.82;2.28;;;23.70;88.40;;;;;;5076855;28;20025;-80
2022/08/25 03:47:23;;;;;;;7.22;2.75;;;23.80;87.70;;;;;;5076424;28;20051;-80
2022/08/25 03:49:49;;;;;;;7.45;2.28;;;24.00;88.00;;;;;;5076016;28;20400;-81
2022/08/25 03:52:17;;;;;;;8.30;2.65;;;24.10;87.70;;;;;;5074315;28;20020;-80
2022/08/25 03:54:43;;;;;;;5.78;2.28;;;24.00;88.20;;;;;;5075679;28;20100;-80
2022/08/25 03:57:08;;;;;;;5.10;2.40;;;23.90;87.60;;;;;;5073768;28;20113;-81
2022/08/25 03:59:37;;;;;;;8.05;2.78;;;23.80;88.10;;;;;;5074392;28;20493;-81
2022/08/25 04:02:03;;;;;;;7.45;2.42;;;23.80;88.50;;;;;;5064077;28;20053;-82
2022/08/25 04:04:28;;;;;;;8.15;2.58;;;23.70;88.80;;;;;;5056863;28;20029;-80
2022/08/25 04:06:54;;;;;;;7.88;2.20;;;23.70;89.20;;;;;;5057875;28;20490;-81
2022/08/25 04:09:19;;;;;;;5.35;2.10;;;23.70;89.20;;;;;;5056234;28;20121;-81
2022/08/25 04:11:45;;;;;;;6.50;2.55;;;23.70;89.20;;;;;;5059080;28;20044;-81
2022/08/25 04:14:11;;;;;;;6.63;2.42;;;23.70;89.00;;;;;;5057807;28;20032;-80
2022/08/25 04:16:37;;;;;;;4.30;2.05;;;23.70;89.10;;;;;;5063154;28;20413;-81
2022/08/25 04:19:06;;;;;;;5.70;2.28;;;23.60;89.20;;;;;;5071682;28;20024;-80
2022/08/25 04:21:32;;;;;;;8.23;2.88;;;23.60;89.20;;;;;;5072423;28;20403;-81
2022/08/25 04:23:58;;;;;;;5.13;2.42;;;23.60;89.20;;;;;;5058441;28;20104;-81
2022/08/25 04:26:33;;;;;;;4.82;2.60;;;23.50;89.20;;;;;;5070087;28;20443;-80
2022/08/25 04:29:00;;;;;;;5.88;2.45;;;23.50;89.40;;;;;;5070815;28;20032;-80
2022/08/25 04:31:26;;;;;;;6.55;2.30;;;23.50;89.10;;;;;;5063053;28;20497;-80
2022/08/25 04:33:52;;;;;;;6.70;2.65;;;23.50;89.30;;;;;;5076173;28;20028;-82
2022/08/25 04:36:19;;;;;;;6.32;2.20;;;23.50;89.30;;;;;;5071417;28;20566;-78
2022/08/25 04:38:45;;;;;;;5.47;2.28;;;23.50;89.30;;;;;;5063911;28;20595;-80
2022/08/25 04:41:12;;;;;;;4.80;2.40;;;23.40;89.20;;;;;;5054697;28;20115;-79
2022/08/25 04:43:40;;;;;;;3.78;2.10;;;23.40;89.20;;;;;;5056552;28;20021;-79
2022/08/25 04:46:09;;;;;;;4.80;2.10;;;23.40;89.30;;;;;;5060374;28;20029;-80
2022/08/25 04:48:35;;;;;;;7.28;2.60;;;23.40;89.20;;;;;;5070579;28;20044;-80
2022/08/25 04:51:10;;;;;;;8.98;2.50;;;23.40;88.10;;;;;;5053489;28;20110;-80
2022/08/25 04:53:36;;;;;;;6.25;2.53;;;23.40;87.80;;;;;;5060694;28;20508;-81
2022/08/25 04:56:05;;;;;;;7.78;2.60;;;23.40;87.50;;;;;;5069383;28;20020;-81
2022/08/25 04:58:31;;;;;;;8.50;2.70;;;23.50;87.30;;;;;;5073055;28;20523;-79
2022/08/25 05:01:12;;;;;;;4.57;2.35;;;23.50;87.10;;;;;;5064936;28;20115;-79
2022/08/25 05:03:37;;;;;;;6.60;2.47;;;23.50;86.90;;;;;;5069763;28;20082;-81
2022/08/25 05:06:04;;;;;;;5.53;2.40;;;23.50;86.80;;;;;;5067898;28;20017;-79
2022/08/25 05:08:30;;;;;;;6.10;2.58;;;23.40;86.70;;;;;;5073491;28;20665;-80
2022/08/25 05:10:56;;;;;;;5.35;2.35;;;23.40;86.70;;;;;;5074174;28;20029;-79
2022/08/25 05:13:23;;;;;;;5.68;2.42;;;23.40;86.90;;;;;;5064248;28;20096;-78
2022/08/25 05:15:54;;;;;;;6.05;2.40;;;23.40;86.90;;;;;;5064158;28;20028;-79
2022/08/25 05:18:21;;;;;;;6.18;2.50;;;23.40;86.90;;;;;;5071183;28;20031;-79
2022/08/25 05:20:47;;;;;;;7.50;2.95;;;23.40;86.50;;;;;;5063876;28;20039;-81
2022/08/25 05:23:13;;;;;;;8.75;3.08;;;23.40;86.50;;;;;;5057630;28;20032;-80
2022/08/25 05:25:39;;;;;;;8.43;2.78;;;23.40;86.10;;;;;;5056287;28;20033;-78
2022/08/25 05:28:04;;;;;;;6.78;2.70;;;23.40;86.00;;;;;;5066585;28;20024;-77
2022/08/25 05:30:30;;;;;;;7.38;2.97;;;23.40;85.90;;;;;;5073347;28;20029;-78
2022/08/25 05:32:56;;;;;;;8.35;2.50;;;23.40;86.00;;;;;;5088010;22;20029;-77
2022/08/25 05:35:21;;;;;;;6.65;2.90;;;23.40;85.90;;;;;;5018310;28;20041;-78
2022/08/25 05:37:47;;;;;;;6.88;2.60;;;23.50;85.90;;;;;;5069350;28;20112;-78
2022/08/25 05:40:13;;;;;;;6.30;2.58;;;23.40;85.80;;;;;;5037646;28;20504;-79
2022/08/25 05:42:39;;;;;;;5.22;2.88;;;23.50;85.70;;;;;;5056480;28;20511;-78
2022/08/25 05:45:05;;;;;;;7.97;3.00;;;23.50;85.60;;;;;;5053436;28;20033;-79
2022/08/25 05:47:31;;;;;;;6.63;2.40;;;23.50;85.60;;;;;;5055966;28;20025;-80
2022/08/25 05:49:57;;;;;;;7.32;3.05;;;23.50;85.60;;;;;;5059847;28;20033;-79
2022/08/25 05:52:23;;;;;;;5.53;2.60;;;23.50;85.70;;;;;;5060887;28;20402;-80
2022/08/25 05:54:48;;;;;;;6.25;2.92;;;23.50;85.70;;;;;;5061157;28;20076;-80
2022/08/25 05:57:14;;;;;;;7.65;3.25;;;23.40;85.70;;;;;;5059415;28;20202;-79
2022/08/25 05:59:39;;;;;;;6.93;2.58;;;23.50;85.80;;;;;;5059444;28;20083;-79
2022/08/25 06:04:49;;;;;;;5.50;2.45;;;23.40;85.80;;;;;;5060712;28;20106;-78
2022/08/25 06:07:15;;;;;;;5.88;2.47;;;23.50;86.40;;;;;;5058324;28;20099;-79
2022/08/25 06:09:41;;;;;;;6.90;2.72;;;23.40;85.80;;;;;;5058369;28;20039;-79
2022/08/25 06:12:07;;;;;;;6.78;2.60;;;23.50;85.90;;;;;;5058979;28;20024;-79
2022/08/25 06:14:33;;;;;;;7.35;2.60;;;23.40;85.80;;;;;;5057159;28;20547;-80
2022/08/25 06:16:59;;;;;;;6.00;2.88;;;23.50;85.80;;;;;;5058480;28;20104;-79
2022/08/25 06:19:26;;;;;;;5.20;2.58;;;23.50;85.80;;;;;;5056905;28;20092;-78
2022/08/25 06:21:56;;;;;;;7.00;2.53;;;23.50;85.80;;;;;;5056012;28;20489;-78
2022/08/25 06:24:23;;;;;;;6.28;2.65;;;23.60;85.70;;;;;;5058065;28;20067;-78
2022/08/25 06:26:48;;;;;;;6.88;2.72;;;23.60;85.50;;;;;;5056488;28;20516;-78
2022/08/25 06:29:14;;;;;;;6.60;2.55;;;23.60;85.40;;;;;;5056681;28;20029;-78
2022/08/25 06:31:40;;;;;;;6.97;2.45;;;23.60;85.10;;;;;;5055876;28;20027;-79
2022/08/25 06:34:05;;;;;;;4.10;2.67;;;23.60;85.00;;;;;;5057348;28;20029;-79
2022/08/25 06:36:33;;;;;;;5.70;2.50;;;23.70;85.00;;;;;;5055628;28;20520;-78
2022/08/25 06:38:59;;;;;;;5.95;2.72;;;23.60;85.00;;;;;;5055665;28;20524;-79
2022/08/25 06:41:24;;;;;;;6.03;2.47;;;23.60;85.00;;;;;;5056869;28;20048;-78
2022/08/25 06:43:50;;;;;;;6.97;2.42;;;23.60;85.10;;;;;;5055525;28;20025;-79
2022/08/25 06:46:20;;;;;;;7.20;2.65;;;23.60;84.90;;;;;;5055921;28;20390;-81
2022/08/25 06:48:46;;;;;;;5.40;2.40;;;23.70;85.00;;;;;;5056361;28;20028;-78
2022/08/25 06:51:14;;;;;;;6.07;2.58;;;23.70;84.90;;;;;;5054644;28;20092;-78
2022/08/25 06:53:40;;;;;;;8.57;2.60;;;23.70;84.80;;;;;;5054688;28;20055;-78
2022/08/25 06:56:05;;;;;;;5.75;2.33;;;23.70;84.70;;;;;;5055873;28;20060;-78
2022/08/25 06:58:32;;;;;;;4.80;2.70;;;23.70;84.70;;;;;;5053978;28;20032;-78
2022/08/25 07:01:09;;;;;;;4.35;2.60;;;23.70;84.80;;;;;;5053815;28;20110;-79
2022/08/25 07:03:35;;;;;;;5.28;2.60;;;23.70;85.20;;;;;;5055118;28;20505;-79
2022/08/25 07:06:00;;;;;;;6.50;2.80;;;23.80;84.40;;;;;;5055253;28;20082;-79
2022/08/25 07:08:26;;;;;;;5.05;2.50;;;23.80;84.10;;;;;;5053820;28;20500;-78
2022/08/25 07:10:52;;;;;;;4.65;2.50;;;23.90;84.00;;;;;;5054708;28;20025;-78
2022/08/25 07:13:17;;;;;;;5.15;2.80;;;23.90;83.90;;;;;;5053649;28;20025;-78
2022/08/25 07:15:43;;;;;;;4.35;2.60;;;23.90;83.80;;;;;;5053416;28;20025;-78
2022/08/25 07:18:10;;;;;;;4.53;2.40;;;23.90;83.70;;;;;;5053618;28;20448;-78
2022/08/25 07:20:37;;;;;;;5.63;2.83;;;23.90;83.60;;;;;;5054284;28;20143;-78
2022/08/25 07:23:02;;;;;;;5.63;2.85;;;23.90;83.60;;;;;;5053001;28;20029;-78
2022/08/25 07:25:28;;;;;;;4.97;2.35;;;23.90;83.60;;;;;;5053209;28;20028;-78
2022/08/25 07:27:54;;;;;;;4.53;2.50;;;24.00;83.80;;;;;;5054212;28;20464;-78
2022/08/25 07:30:20;;;;;;;5.30;2.53;;;24.00;83.50;;;;;;5053934;28;20096;-78
2022/08/25 07:32:45;;;;;;;4.20;2.40;;;24.00;83.50;;;;;;5052842;28;20021;-78
2022/08/25 07:35:14;;;;;;;4.28;2.60;;;24.00;83.40;;;;;;5051987;28;20089;-79
2022/08/25 07:37:41;;;;;;;4.40;2.60;;;24.00;83.30;;;;;;5052732;28;20021;-79
2022/08/25 07:40:09;;;;;;;4.53;2.58;;;24.00;83.30;;;;;;5053409;28;20017;-79
2022/08/25 07:42:34;;;;;;;4.65;2.72;;;24.00;83.30;;;;;;5052247;28;20111;-79
2022/08/25 07:45:00;;;;;;;4.93;2.83;;;24.10;83.40;;;;;;5052109;28;20155;-79
2022/08/25 07:47:26;;;;;;;5.00;2.70;;;24.00;83.20;;;;;;5052205;28;20036;-79
2022/08/25 07:49:51;;;;;;;5.45;2.70;;;24.20;83.00;;;;;;5053418;28;20029;-79
2022/08/25 07:52:17;;;;;;;4.97;2.63;;;24.20;82.70;;;;;;5051956;28;20028;-80
2022/08/25 07:54:42;;;;;;;6.18;3.00;;;24.30;82.50;;;;;;5051905;28;20402;-78
2022/08/25 07:57:08;;;;;;;6.35;2.85;;;24.30;82.40;;;;;;5051911;28;20070;-79
2022/08/25 07:59:38;;;;;;;4.50;2.70;;;24.30;82.30;;;;;;5032345;28;20025;-79
2022/08/25 08:02:03;;;;;;;5.38;3.20;;;24.30;82.10;;;;;;5033035;28;20552;-79
2022/08/25 08:04:29;;;;;;;4.68;2.88;;;24.40;82.40;;;;;;5033700;28;20049;-80
2022/08/25 08:06:55;;;;;;;5.05;3.05;;;24.30;82.20;;;;;;5040712;28;20401;-81
2022/08/25 08:09:20;;;;;;;4.85;3.13;;;24.30;82.10;;;;;;5039797;28;20045;-80
2022/08/25 08:11:46;;;;;;;5.55;3.20;;;24.30;82.20;;;;;;5037724;28;20021;-81
2022/08/25 08:14:12;;;;;;;5.13;3.60;;;24.30;82.20;;;;;;5039372;28;20018;-80
2022/08/25 08:16:38;;;;;;;5.45;3.50;;;24.30;82.20;;;;;;5038365;28;20033;-80
2022/08/25 08:19:05;;;;;;;6.30;3.47;;;24.30;82.30;;;;;;5039354;28;20081;-80
2022/08/25 08:21:33;;;;;;;5.22;3.30;;;24.30;83.00;;;;;;5038462;28;20087;-79
2022/08/25 08:23:59;;;;;;;6.25;3.67;;;24.30;82.30;;;;;;5037299;28;20052;-80
2022/08/25 08:26:27;;;;;;;5.43;3.58;;;24.40;82.40;;;;;;5036713;28;20104;-80
2022/08/25 08:28:52;;;;;;;5.85;3.33;;;24.40;82.40;;;;;;5038064;28;20029;-79
2022/08/25 08:31:20;;;;;;;6.18;3.40;;;24.40;82.40;;;;;;5035530;28;20056;-80
2022/08/25 08:33:47;;;;;;;5.68;3.67;;;24.40;82.20;;;;;;5035600;28;20041;-80
2022/08/25 08:36:13;;;;;;;5.75;3.75;;;24.50;82.10;;;;;;5037245;28;20394;-80
2022/08/25 08:38:41;;;;;;;5.75;3.90;;;24.50;82.10;;;;;;5035213;28;20025;-80
2022/08/25 08:44:41;;;;;;;4.78;3.20;;;24.60;81.70;;;;;;5036326;28;20083;-81
2022/08/25 08:47:15;;;;;;;5.38;3.20;;;24.60;81.70;;;;;;5034802;28;20021;-79
2022/08/25 08:49:44;;;;;;;6.22;3.70;;;24.60;81.50;;;;;;5034559;28;20094;-80
2022/08/25 08:52:14;;;;;;;5.50;3.50;;;24.60;81.70;;;;;;5035371;28;20509;-79
2022/08/25 08:54:41;;;;;;;5.82;3.58;;;24.60;81.80;;;;;;5033521;28;20018;-79
2022/08/25 08:57:15;;;;;;;5.47;3.50;;;24.60;81.90;;;;;;5035175;28;20025;-80
2022/08/25 08:59:47;;;;;;;5.38;3.20;;;24.60;81.90;;;;;;5033548;28;20053;-80
2022/08/25 09:02:30;;;;;;;5.32;3.75;;;24.60;81.90;;;;;;5032705;28;20481;-80
2022/08/25 09:05:00;;;;;;;6.38;3.78;;;24.60;81.90;;;;;;5034410;28;20032;-81
2022/08/25 09:07:34;;;;;;;5.70;3.92;;;24.60;82.40;;;;;;5032805;28;20022;-79
2022/08/25 09:10:00;;;;;;;6.43;4.25;;;24.60;81.80;;;;;;5033198;28;20125;-79
2022/08/25 09:12:32;;;;;;;6.05;4.00;;;24.70;81.90;;;;;;5032733;28;20131;-79
2022/08/25 09:19:07;;;;;;;5.57;3.75;;;24.70;81.80;;;;;;4994026;28;20518;-79
2022/08/25 09:21:52;;;;;;;5.78;3.75;;;24.80;81.70;;;;;;5032544;28;20028;-79
2022/08/25 09:24:35;;;;;;;5.75;3.97;;;24.80;81.50;;;;;;5032023;28;20018;-79
2022/08/25 09:27:27;;;;;;;6.57;4.10;;;24.80;81.30;;;;;;5031780;28;20649;-78
2022/08/25 09:30:09;;;;;;;5.55;3.60;;;24.80;81.20;;;;;;5031722;28;20029;-80
2022/08/25 09:32:39;;;;;;;5.80;3.80;;;24.80;81.30;;;;;;5031935;28;20068;-79
2022/08/25 09:35:06;;;;;;;5.32;3.83;;;24.80;81.50;;;;;;5031938;28;20060;-79
2022/08/25 09:37:31;;;;;;;6.22;3.60;;;24.80;81.70;;;;;;5031382;28;20025;-78
2022/08/25 09:39:57;;;;;;;6.25;4.00;;;24.70;81.70;;;;;;5032520;28;20044;-77
2022/08/25 09:42:50;;;;;;;5.90;4.13;;;24.80;81.70;;;;;;5031545;28;20025;-78
2022/08/25 09:45:31;;;;;;;5.28;3.80;;;24.80;81.80;;;;;;5032617;28;20017;-78
2022/08/25 09:47:57;;;;;;;6.03;4.15;;;24.80;81.80;;;;;;5031825;28;20030;-79
2022/08/25 09:50:22;;;;;;;6.32;4.30;;;24.80;81.80;;;;;;5030933;28;20395;-78
2022/08/25 09:52:48;;;;;;;5.35;3.72;;;24.80;81.90;;;;;;5031003;28;20018;-79
2022/08/25 09:55:21;;;;;;;6.57;4.30;;;24.80;81.80;;;;;;5031038;28;20029;-79
2022/08/25 09:57:53;;;;;;;6.32;4.20;;;24.80;81.80;;;;;;5034203;28;20022;-79
2022/08/25 10:00:23;;;;;;;5.70;3.88;;;24.80;81.70;;;;;;5034216;28;20017;-79
2022/08/25 10:03:34;;;;;;;5.72;3.85;;;24.80;81.50;;;;;;5035686;28;20036;-79
2022/08/25 10:06:06;;;;;;;5.50;3.75;;;24.90;81.50;;;;;;5033626;28;20037;-78
2022/08/25 10:08:50;;;;;;;4.90;3.40;;;24.90;81.30;;;;;;5034402;28;20049;-78
2022/08/25 10:11:32;;;;;;;5.82;3.80;;;24.90;81.30;;;;;;5034124;28;20021;-79
2022/08/25 10:14:05;;;;;;;5.47;3.78;;;25.00;81.20;;;;;;5034116;28;20435;-80
2022/08/25 10:16:31;;;;;;;6.22;3.80;;;24.90;81.30;;;;;;5034595;28;20028;-78
2022/08/25 10:19:13;;;;;;;5.80;4.10;;;24.90;81.40;;;;;;5034045;28;20025;-78
2022/08/25 10:21:41;;;;;;;5.60;3.80;;;24.90;81.60;;;;;;5040956;28;20061;-80
2022/08/25 10:24:11;;;;;;;6.72;3.88;;;24.80;81.60;;;;;;5043451;28;20036;-81
2022/08/25 10:26:43;;;;;;;5.80;3.90;;;24.80;81.60;;;;;;5042545;28;20076;-80
2022/08/25 10:29:11;;;;;;;5.45;3.53;;;24.90;81.70;;;;;;5043266;28;20612;-80
2022/08/25 10:32:03;;;;;;;5.93;4.00;;;24.80;81.60;;;;;;5041529;28;20438;-80
2022/08/25 10:34:52;;;;;;;5.82;3.92;;;24.80;81.60;;;;;;5041430;28;20033;-80
2022/08/25 10:37:26;;;;;;;6.10;4.00;;;24.90;81.70;;;;;;5042008;28;20049;-79
2022/08/25 10:40:25;;;;;;;5.60;3.83;;;24.80;81.60;;;;;;5041708;28;20029;-79
2022/08/25 10:43:06;;;;;;;5.47;3.85;;;24.80;81.60;;;;;;5041256;28;20021;-79
2022/08/25 10:45:44;;;;;;;5.60;4.10;;;24.90;81.60;;;;;;5041154;28;20033;-80
2022/08/25 10:48:28;;;;;;;5.60;3.72;;;24.90;81.50;;;;;;5039228;28;20021;-80
2022/08/25 10:51:01;;;;;;;5.97;3.97;;;24.90;81.30;;;;;;5040091;28;20085;-81
2022/08/25 10:53:41;;;;;;;5.70;3.80;;;25.00;81.30;;;;;;5039686;28;20022;-79
2022/08/25 10:56:39;;;;;;;5.53;3.97;;;25.00;81.20;;;;;;5038210;28;20394;-80
2022/08/25 10:59:33;;;;;;;6.50;4.13;;;25.00;81.20;;;;;;5038880;28;20551;-80
2022/08/25 11:02:16;;;;;;;6.03;4.00;;;25.00;81.70;;;;;;5036414;28;20029;-79
2022/08/25 11:04:48;;;;;;;5.97;3.70;;;25.00;81.30;;;;;;5036612;28;20029;-79
2022/08/25 11:07:25;;;;;;;5.47;3.90;;;24.90;81.50;;;;;;5036588;28;20029;-81
2022/08/25 11:09:56;;;;;;;6.32;4.28;;;24.80;81.60;;;;;;5037795;28;20039;-80
2022/08/25 11:12:25;;;;;;;5.40;4.00;;;24.80;81.70;;;;;;5037870;28;20022;-79
2022/08/25 11:15:00;;;;;;;5.50;3.95;;;24.80;82.00;;;;;;5035547;28;20029;-79
2022/08/25 11:17:38;;;;;;;5.65;4.10;;;24.80;82.00;;;;;;5035402;28;20400;-80
2022/08/25 11:20:11;;;;;;;5.57;3.97;;;24.80;82.00;;;;;;5035403;28;20064;-79
2022/08/25 11:22:52;;;;;;;6.00;4.18;;;24.80;82.10;;;;;;5036727;28;20494;-78
2022/08/25 11:25:40;;;;;;;5.53;3.92;;;24.80;82.00;;;;;;5034239;28;20549;-78
2022/08/25 11:28:19;;;;;;;6.38;4.00;;;24.80;82.10;;;;;;5034736;28;20402;-79
2022/08/25 11:30:45;;;;;;;5.75;4.00;;;24.80;82.00;;;;;;5035640;28;20030;-79
2022/08/25 11:33:13;;;;;;;5.20;3.80;;;24.90;81.90;;;;;;5036006;28;20053;-79
2022/08/25 11:35:42;;;;;;;6.47;4.22;;;24.80;81.80;;;;;;5034506;28;20367;-79
2022/08/25 11:38:26;;;;;;;5.93;4.10;;;24.90;81.80;;;;;;5033619;28;20021;-79
2022/08/25 11:40:58;;;;;;;6.05;4.35;;;24.90;81.60;;;;;;5033379;28;20033;-79
2022/08/25 11:43:42;;;;;;;5.30;3.80;;;24.90;81.60;;;;;;5033837;28;20116;-79
2022/08/25 11:46:29;;;;;;;5.82;4.20;;;24.90;81.60;;;;;;5033384;28;20029;-79
2022/08/25 11:49:25;;;;;;;5.68;4.07;;;24.80;81.70;;;;;;5033380;28;20041;-79
2022/08/25 11:51:51;;;;;;;6.70;4.15;;;24.80;81.90;;;;;;5034648;28;20079;-78
2022/08/25 11:54:38;;;;;;;6.00;4.20;;;24.80;82.00;;;;;;5034347;28;20104;-79
2022/08/25 11:57:15;;;;;;;5.78;3.80;;;24.70;82.70;;;;;;5032877;28;20029;-79
2022/08/25 11:59:52;;;;;;;5.60;4.30;;;24.80;82.30;;;;;;5033931;28;20053;-78
2022/08/25 12:02:29;;;;;;;5.70;3.92;;;24.70;82.40;;;;;;5032367;28;20025;-79
2022/08/25 12:04:56;;;;;;;5.38;4.00;;;24.70;82.40;;;;;;5034206;28;20037;-79
2022/08/25 12:07:24;;;;;;;6.10;4.13;;;24.70;82.50;;;;;;5032196;28;20486;-79
2022/08/25 12:09:50;;;;;;;5.15;3.78;;;24.70;82.60;;;;;;5032158;28;20482;-78
2022/08/25 12:12:53;;;;;;;6.63;4.65;;;24.60;82.70;;;;;;5031743;28;20100;-79
2022/08/25 12:15:26;;;;;;;6.30;4.35;;;24.60;82.80;;;;;;5033781;28;20018;-79
2022/08/25 12:18:15;;;;;;;5.63;4.18;;;24.60;82.80;;;;;;5031962;28;20072;-79
2022/08/25 12:20:53;;;;;;;6.57;4.60;;;24.70;82.80;;;;;;5031710;28;20025;-79
2022/08/25 12:23:30;;;;;;;5.70;4.13;;;24.70;82.70;;;;;;5032132;28;20839;-79
2022/08/25 12:25:59;;;;;;;6.15;4.03;;;24.70;82.60;;;;;;5031844;28;20089;-78
2022/08/25 12:28:55;;;;;;;6.25;4.50;;;24.70;82.50;;;;;;5032036;28;20034;-79
2022/08/25 12:31:30;;;;;;;5.50;4.05;;;24.60;82.50;;;;;;5031528;28;20026;-78
2022/08/25 12:34:01;;;;;;;6.28;4.22;;;24.60;82.60;;;;;;5031701;28;20153;-79
2022/08/25 12:36:32;;;;;;;;;;;24.60;82.70;;;;;;5039006;28;20128;-81
2022/08/25 12:39:19;;;;;;;6.00;4.40;;;24.60;82.90;;;;;;5040600;28;20428;-80
2022/08/25 12:41:55;;;;;;;5.90;4.22;;;24.60;83.00;;;;;;5040779;28;20032;-80
2022/08/25 12:44:41;;;;;;;5.53;4.10;;;24.50;83.00;;;;;;5039323;28;20045;-81
2022/08/25 12:47:18;;;;;;;6.50;4.20;;;24.50;83.00;;;;;;5040691;28;20018;-81
2022/08/25 12:49:44;;;;;;;5.72;3.97;;;24.60;83.10;;;;;;5039081;28;20033;-82
2022/08/25 12:52:17;;;;;;;6.32;4.43;;;24.50;83.20;;;;;;5038089;28;20497;-81
2022/08/25 12:54:52;;;;;;;6.20;4.40;;;24.50;83.20;;;;;;5037834;28;20029;-81
2022/08/25 12:57:49;;;;;;;6.43;4.40;;;24.50;83.20;;;;;;5038485;28;20022;-81
2022/08/25 13:00:27;;;;;;;6.72;4.57;;;24.50;83.20;;;;;;5036961;28;20044;-80
2022/08/25 13:03:24;;;;;;;5.93;4.20;;;24.60;83.10;;;;;;5038384;28;20540;-80
2022/08/25 13:06:27;;;;;;;6.30;4.60;;;24.60;83.00;;;;;;5036051;28;20034;-80
2022/08/25 13:09:04;;;;;;;5.78;4.28;;;24.60;82.90;;;;;;5035965;28;20052;-80
2022/08/25 13:11:37;;;;;;;6.10;4.68;;;24.60;82.80;;;;;;5036760;28;20095;-80
2022/08/25 13:14:16;;;;;;;5.68;4.13;;;24.60;82.90;;;;;;5034831;28;20075;-79
2022/08/25 13:16:52;;;;;;;6.10;4.60;;;24.60;83.00;;;;;;5035004;28;20048;-79